sensor_id;sensor_type;location;lat;lon;timestamp;P1;durP1;ratioP1;P2;durP2;ratioP2
78824;SDS011;68176;45.554;10.220;2023-04-07T00:16:01;3.28;;;2.65;;
78824;SDS011;68176;45.554;10.220;2023-04-07T01:33:26;3.03;;;2.40;;
78824;SDS011;68176;45.554;10.220;2023-04-07T02:46:52;4.38;;;2.72;;
78824;SDS011;68176;45.554;10.220;2023-04-07T03:03:53;3.17;;;1.93;;
78824;SDS011;68176;45.554;10.220;2023-04-07T03:06:18;4.15;;;2.80;;
78824;SDS011;68176;45.554;10.220;2023-04-07T03:08:44;3.00;;;1.95;;
78824;SDS011;68176;45.554;10.220;2023-04-07T03:13:44;3.70;;;2.58;;
78824;SDS011;68176;45.554;10.220;2023-04-07T03:16:14;3.75;;;2.42;;
78824;SDS011;68176;45.554;10.220;2023-04-07T03:18:44;4.22;;;2.75;;
78824;SDS011;68176;45.554;10.220;2023-04-07T03:21:19;3.55;;;2.35;;
78824;SDS011;68176;45.554;10.220;2023-04-07T03:23:45;3.25;;;2.10;;
78824;SDS011;68176;45.554;10.220;2023-04-07T03:26:14;4.57;;;2.78;;
78824;SDS011;68176;45.554;10.220;2023-04-07T03:31:14;3.80;;;2.78;;
78824;SDS011;68176;45.554;10.220;2023-04-07T03:36:14;5.05;;;2.58;;
78824;SDS011;68176;45.554;10.220;2023-04-07T03:38:45;4.78;;;2.50;;
78824;SDS011;68176;45.554;10.220;2023-04-07T03:41:14;5.13;;;3.73;;
78824;SDS011;68176;45.554;10.220;2023-04-07T03:43:44;3.63;;;2.65;;
78824;SDS011;68176;45.554;10.220;2023-04-07T03:46:14;4.82;;;2.75;;
78824;SDS011;68176;45.554;10.220;2023-04-07T03:48:44;3.70;;;2.45;;
78824;SDS011;68176;45.554;10.220;2023-04-07T03:51:14;5.75;;;3.03;;
78824;SDS011;68176;45.554;10.220;2023-04-07T03:53:44;3.95;;;2.67;;
78824;SDS011;68176;45.554;10.220;2023-04-07T03:56:14;5.13;;;2.38;;
78824;SDS011;68176;45.554;10.220;2023-04-07T03:58:44;3.47;;;2.50;;
78824;SDS011;68176;45.554;10.220;2023-04-07T04:01:14;5.32;;;3.17;;
78824;SDS011;68176;45.554;10.220;2023-04-07T04:03:45;4.35;;;2.60;;
78824;SDS011;68176;45.554;10.220;2023-04-07T04:06:18;4.20;;;3.10;;
78824;SDS011;68176;45.554;10.220;2023-04-07T04:08:44;3.50;;;2.28;;
78824;SDS011;68176;45.554;10.220;2023-04-07T04:11:14;3.40;;;2.45;;
78824;SDS011;68176;45.554;10.220;2023-04-07T04:13:44;4.70;;;3.35;;
78824;SDS011;68176;45.554;10.220;2023-04-07T04:16:14;4.40;;;2.83;;
78824;SDS011;68176;45.554;10.220;2023-04-07T04:21:14;5.05;;;3.40;;
78824;SDS011;68176;45.554;10.220;2023-04-07T04:23:44;3.83;;;2.53;;
78824;SDS011;68176;45.554;10.220;2023-04-07T04:28:44;4.35;;;2.20;;
78824;SDS011;68176;45.554;10.220;2023-04-07T04:31:14;5.05;;;2.67;;
78824;SDS011;68176;45.554;10.220;2023-04-07T04:33:47;5.50;;;2.55;;
78824;SDS011;68176;45.554;10.220;2023-04-07T04:36:20;4.53;;;2.55;;
78824;SDS011;68176;45.554;10.220;2023-04-07T04:41:14;2.67;;;2.03;;
78824;SDS011;68176;45.554;10.220;2023-04-07T04:46:15;4.72;;;2.83;;
78824;SDS011;68176;45.554;10.220;2023-04-07T04:48:44;5.70;;;2.90;;
78824;SDS011;68176;45.554;10.220;2023-04-07T04:51:14;3.95;;;2.72;;
78824;SDS011;68176;45.554;10.220;2023-04-07T04:53:44;3.63;;;2.17;;
78824;SDS011;68176;45.554;10.220;2023-04-07T04:56:14;3.97;;;2.42;;
78824;SDS011;68176;45.554;10.220;2023-04-07T04:58:44;3.65;;;2.33;;
78824;SDS011;68176;45.554;10.220;2023-04-07T05:01:14;5.25;;;2.33;;
78824;SDS011;68176;45.554;10.220;2023-04-07T05:03:44;5.10;;;2.58;;
78824;SDS011;68176;45.554;10.220;2023-04-07T05:08:46;3.60;;;2.30;;
78824;SDS011;68176;45.554;10.220;2023-04-07T05:11:15;5.32;;;2.90;;
78824;SDS011;68176;45.554;10.220;2023-04-07T05:13:45;7.10;;;2.78;;
78824;SDS011;68176;45.554;10.220;2023-04-07T05:16:15;4.05;;;2.75;;
78824;SDS011;68176;45.554;10.220;2023-04-07T05:21:15;7.00;;;2.55;;
78824;SDS011;68176;45.554;10.220;2023-04-07T05:23:45;4.00;;;2.42;;
78824;SDS011;68176;45.554;10.220;2023-04-07T05:26:15;4.50;;;2.83;;
78824;SDS011;68176;45.554;10.220;2023-04-07T05:31:15;4.30;;;2.10;;
78824;SDS011;68176;45.554;10.220;2023-04-07T05:33:47;4.15;;;1.95;;
78824;SDS011;68176;45.554;10.220;2023-04-07T05:36:19;2.80;;;1.65;;
78824;SDS011;68176;45.554;10.220;2023-04-07T05:38:45;6.18;;;2.83;;
78824;SDS011;68176;45.554;10.220;2023-04-07T05:41:18;4.18;;;2.55;;
78824;SDS011;68176;45.554;10.220;2023-04-07T05:43:54;5.67;;;2.23;;
78824;SDS011;68176;45.554;10.220;2023-04-07T05:46:20;3.93;;;2.30;;
78824;SDS011;68176;45.554;10.220;2023-04-07T05:49:01;3.57;;;2.73;;
78824;SDS011;68176;45.554;10.220;2023-04-07T05:51:26;2.10;;;1.30;;
78824;SDS011;68176;45.554;10.220;2023-04-07T05:53:55;3.42;;;2.40;;
78824;SDS011;68176;45.554;10.220;2023-04-07T05:58:55;4.15;;;2.13;;
78824;SDS011;68176;45.554;10.220;2023-04-07T06:01:25;5.97;;;2.88;;
78824;SDS011;68176;45.554;10.220;2023-04-07T06:03:55;4.93;;;2.85;;
78824;SDS011;68176;45.554;10.220;2023-04-07T06:06:25;4.18;;;2.83;;
78824;SDS011;68176;45.554;10.220;2023-04-07T06:08:55;3.50;;;2.28;;
78824;SDS011;68176;45.554;10.220;2023-04-07T06:11:25;4.47;;;2.97;;
78824;SDS011;68176;45.554;10.220;2023-04-07T06:13:58;3.85;;;2.65;;
78824;SDS011;68176;45.554;10.220;2023-04-07T06:16:25;3.33;;;2.28;;
78824;SDS011;68176;45.554;10.220;2023-04-07T06:18:58;6.93;;;3.22;;
78824;SDS011;68176;45.554;10.220;2023-04-07T06:21:25;3.47;;;2.05;;
78824;SDS011;68176;45.554;10.220;2023-04-07T06:23:55;3.97;;;2.35;;
78824;SDS011;68176;45.554;10.220;2023-04-07T06:31:25;12.98;;;9.02;;
78824;SDS011;68176;45.554;10.220;2023-04-07T06:36:25;10.48;;;7.28;;
78824;SDS011;68176;45.554;10.220;2023-04-07T06:38:55;12.05;;;7.53;;
78824;SDS011;68176;45.554;10.220;2023-04-07T06:41:25;12.43;;;8.68;;
78824;SDS011;68176;45.554;10.220;2023-04-07T06:43:55;11.77;;;8.77;;
78824;SDS011;68176;45.554;10.220;2023-04-07T06:46:25;13.82;;;7.55;;
78824;SDS011;68176;45.554;10.220;2023-04-07T06:48:55;9.50;;;7.55;;
78824;SDS011;68176;45.554;10.220;2023-04-07T06:51:28;11.25;;;7.65;;
78824;SDS011;68176;45.554;10.220;2023-04-07T06:53:55;7.30;;;5.25;;
78824;SDS011;68176;45.554;10.220;2023-04-07T06:56:25;11.75;;;7.55;;
78824;SDS011;68176;45.554;10.220;2023-04-07T06:58:55;12.63;;;6.65;;
78824;SDS011;68176;45.554;10.220;2023-04-07T07:01:31;14.70;;;5.80;;
78824;SDS011;68176;45.554;10.220;2023-04-07T07:03:58;6.80;;;3.55;;
78824;SDS011;68176;45.554;10.220;2023-04-07T07:06:25;7.53;;;4.97;;
78824;SDS011;68176;45.554;10.220;2023-04-07T07:08:55;12.05;;;4.93;;
78824;SDS011;68176;45.554;10.220;2023-04-07T07:11:25;7.88;;;5.88;;
78824;SDS011;68176;45.554;10.220;2023-04-07T07:14:01;8.73;;;5.53;;
78824;SDS011;68176;45.554;10.220;2023-04-07T07:16:27;4.00;;;3.10;;
78824;SDS011;68176;45.554;10.220;2023-04-07T07:18:55;9.75;;;5.03;;
78824;SDS011;68176;45.554;10.220;2023-04-07T07:21:25;7.43;;;4.80;;
78824;SDS011;68176;45.554;10.220;2023-04-07T07:23:55;9.57;;;5.18;;
78824;SDS011;68176;45.554;10.220;2023-04-07T07:26:25;8.65;;;5.00;;
78824;SDS011;68176;45.554;10.220;2023-04-07T07:31:25;6.53;;;4.65;;
78824;SDS011;68176;45.554;10.220;2023-04-07T07:33:55;8.63;;;4.65;;
78824;SDS011;68176;45.554;10.220;2023-04-07T07:36:31;6.35;;;4.28;;
78824;SDS011;68176;45.554;10.220;2023-04-07T07:39:03;4.20;;;2.30;;
78824;SDS011;68176;45.554;10.220;2023-04-07T07:41:35;5.60;;;4.80;;
78824;SDS011;68176;45.554;10.220;2023-04-07T07:44:01;9.37;;;4.47;;
78824;SDS011;68176;45.554;10.220;2023-04-07T07:48:59;4.70;;;4.07;;
78824;SDS011;68176;45.554;10.220;2023-04-07T07:51:25;9.65;;;5.18;;
78824;SDS011;68176;45.554;10.220;2023-04-07T07:53:58;7.72;;;4.65;;
78824;SDS011;68176;45.554;10.220;2023-04-07T07:56:25;4.70;;;4.13;;
78824;SDS011;68176;45.554;10.220;2023-04-07T07:58:55;5.78;;;3.58;;
78824;SDS011;68176;45.554;10.220;2023-04-07T08:01:25;5.82;;;3.67;;
78824;SDS011;68176;45.554;10.220;2023-04-07T08:03:55;7.90;;;4.20;;
78824;SDS011;68176;45.554;10.220;2023-04-07T08:06:45;7.88;;;4.35;;
78824;SDS011;68176;45.554;10.220;2023-04-07T08:09:10;4.90;;;3.35;;
78824;SDS011;68176;45.554;10.220;2023-04-07T08:11:51;6.72;;;4.03;;
78824;SDS011;68176;45.554;10.220;2023-04-07T08:14:20;4.25;;;3.20;;
78824;SDS011;68176;45.554;10.220;2023-04-07T08:16:45;6.20;;;3.65;;
78824;SDS011;68176;45.554;10.220;2023-04-07T08:19:11;4.25;;;3.50;;
78824;SDS011;68176;45.554;10.220;2023-04-07T08:21:40;6.40;;;3.70;;
78824;SDS011;68176;45.554;10.220;2023-04-07T08:26:44;6.25;;;4.13;;
78824;SDS011;68176;45.554;10.220;2023-04-07T08:29:11;3.83;;;2.90;;
78824;SDS011;68176;45.554;10.220;2023-04-07T08:34:11;6.40;;;2.90;;
78824;SDS011;68176;45.554;10.220;2023-04-07T08:36:41;6.47;;;3.47;;
78824;SDS011;68176;45.554;10.220;2023-04-07T08:39:11;4.82;;;3.25;;
78824;SDS011;68176;45.554;10.220;2023-04-07T08:41:41;5.88;;;4.05;;
78824;SDS011;68176;45.554;10.220;2023-04-07T08:44:11;5.72;;;3.72;;
78824;SDS011;68176;45.554;10.220;2023-04-07T08:46:49;6.60;;;2.93;;
78824;SDS011;68176;45.554;10.220;2023-04-07T08:49:16;6.85;;;4.70;;
78824;SDS011;68176;45.554;10.220;2023-04-07T08:51:44;5.30;;;3.60;;
78824;SDS011;68176;45.554;10.220;2023-04-07T08:54:16;4.40;;;3.15;;
78824;SDS011;68176;45.554;10.220;2023-04-07T08:56:49;3.60;;;3.30;;
78824;SDS011;68176;45.554;10.220;2023-04-07T08:59:28;12.77;;;2.58;;
78824;SDS011;68176;45.554;10.220;2023-04-07T09:01:55;4.47;;;3.07;;
78824;SDS011;68176;45.554;10.220;2023-04-07T09:04:21;3.60;;;2.40;;
78824;SDS011;68176;45.554;10.220;2023-04-07T09:06:49;5.80;;;3.40;;
78824;SDS011;68176;45.554;10.220;2023-04-07T09:09:19;8.18;;;3.90;;
78824;SDS011;68176;45.554;10.220;2023-04-07T09:11:57;8.52;;;3.55;;
78824;SDS011;68176;45.554;10.220;2023-04-07T09:14:23;4.75;;;3.45;;
78824;SDS011;68176;45.554;10.220;2023-04-07T09:19:26;4.13;;;2.63;;
78824;SDS011;68176;45.554;10.220;2023-04-07T09:21:55;4.75;;;2.75;;
78824;SDS011;68176;45.554;10.220;2023-04-07T09:24:28;6.10;;;2.70;;
78824;SDS011;68176;45.554;10.220;2023-04-07T09:27:17;5.57;;;3.30;;
78824;SDS011;68176;45.554;10.220;2023-04-07T09:29:46;6.00;;;2.97;;
78824;SDS011;68176;45.554;10.220;2023-04-07T09:32:12;4.17;;;3.13;;
78824;SDS011;68176;45.554;10.220;2023-04-07T09:35:06;3.75;;;2.70;;
78824;SDS011;68176;45.554;10.220;2023-04-07T09:37:32;4.65;;;2.50;;
78824;SDS011;68176;45.554;10.220;2023-04-07T09:40:00;6.32;;;3.58;;
78824;SDS011;68176;45.554;10.220;2023-04-07T09:42:33;9.35;;;3.08;;
78824;SDS011;68176;45.554;10.220;2023-04-07T09:45:00;4.43;;;2.77;;
78824;SDS011;68176;45.554;10.220;2023-04-07T09:47:32;3.20;;;2.10;;
78824;SDS011;68176;45.554;10.220;2023-04-07T09:50:00;7.32;;;3.80;;
78824;SDS011;68176;45.554;10.220;2023-04-07T09:55:22;3.58;;;2.05;;
78824;SDS011;68176;45.554;10.220;2023-04-07T09:57:55;5.47;;;3.20;;
78824;SDS011;68176;45.554;10.220;2023-04-07T10:00:21;4.75;;;2.55;;
78824;SDS011;68176;45.554;10.220;2023-04-07T10:02:49;4.93;;;2.78;;
78824;SDS011;68176;45.554;10.220;2023-04-07T10:05:19;4.70;;;3.28;;
78824;SDS011;68176;45.554;10.220;2023-04-07T10:07:49;4.60;;;2.92;;
78824;SDS011;68176;45.554;10.220;2023-04-07T10:10:41;9.95;;;3.75;;
78824;SDS011;68176;45.554;10.220;2023-04-07T10:13:15;5.38;;;3.38;;
78824;SDS011;68176;45.554;10.220;2023-04-07T10:15:41;3.85;;;2.65;;
78824;SDS011;68176;45.554;10.220;2023-04-07T10:18:07;3.30;;;2.10;;
78824;SDS011;68176;45.554;10.220;2023-04-07T10:20:35;4.70;;;3.25;;
78824;SDS011;68176;45.554;10.220;2023-04-07T10:23:35;4.28;;;2.72;;
78824;SDS011;68176;45.554;10.220;2023-04-07T10:26:07;4.75;;;2.70;;
78824;SDS011;68176;45.554;10.220;2023-04-07T10:28:34;3.50;;;2.50;;
78824;SDS011;68176;45.554;10.220;2023-04-07T10:31:05;3.80;;;2.50;;
78824;SDS011;68176;45.554;10.220;2023-04-07T10:36:14;4.00;;;3.10;;
78824;SDS011;68176;45.554;10.220;2023-04-07T10:38:44;5.50;;;2.80;;
78824;SDS011;68176;45.554;10.220;2023-04-07T10:41:36;6.55;;;3.30;;
78824;SDS011;68176;45.554;10.220;2023-04-07T10:44:03;4.35;;;3.30;;
78824;SDS011;68176;45.554;10.220;2023-04-07T10:49:14;5.50;;;4.85;;
78824;SDS011;68176;45.554;10.220;2023-04-07T10:51:43;7.03;;;3.40;;
78824;SDS011;68176;45.554;10.220;2023-04-07T10:54:18;4.20;;;3.00;;
78824;SDS011;68176;45.554;10.220;2023-04-07T10:57:04;5.13;;;3.43;;
78824;SDS011;68176;45.554;10.220;2023-04-07T11:04:39;4.73;;;2.63;;
78824;SDS011;68176;45.554;10.220;2023-04-07T11:07:06;3.80;;;2.45;;
78824;SDS011;68176;45.554;10.220;2023-04-07T11:09:32;3.35;;;2.35;;
78824;SDS011;68176;45.554;10.220;2023-04-07T11:12:06;3.35;;;2.35;;
78824;SDS011;68176;45.554;10.220;2023-04-07T11:14:32;3.55;;;2.67;;
78824;SDS011;68176;45.554;10.220;2023-04-07T11:17:02;6.53;;;2.47;;
78824;SDS011;68176;45.554;10.220;2023-04-07T11:19:42;5.70;;;3.10;;
78824;SDS011;68176;45.554;10.220;2023-04-07T11:22:18;5.60;;;3.78;;
78824;SDS011;68176;45.554;10.220;2023-04-07T11:24:44;3.80;;;1.80;;
78824;SDS011;68176;45.554;10.220;2023-04-07T11:27:12;5.47;;;3.17;;
78824;SDS011;68176;45.554;10.220;2023-04-07T11:29:42;6.47;;;3.13;;
78824;SDS011;68176;45.554;10.220;2023-04-07T11:32:11;8.55;;;4.00;;
78824;SDS011;68176;45.554;10.220;2023-04-07T11:34:45;7.55;;;3.83;;
78824;SDS011;68176;45.554;10.220;2023-04-07T11:37:23;11.13;;;3.53;;
78824;SDS011;68176;45.554;10.220;2023-04-07T11:42:34;4.63;;;2.80;;
78824;SDS011;68176;45.554;10.220;2023-04-07T11:45:01;4.70;;;3.03;;
78824;SDS011;68176;45.554;10.220;2023-04-07T11:47:34;3.30;;;3.00;;
78824;SDS011;68176;45.554;10.220;2023-04-07T11:50:01;8.17;;;4.47;;
78824;SDS011;68176;45.554;10.220;2023-04-07T11:52:39;10.80;;;3.10;;
78824;SDS011;68176;45.554;10.220;2023-04-07T11:55:05;7.00;;;3.38;;
78824;SDS011;68176;45.554;10.220;2023-04-07T11:57:31;3.40;;;2.70;;
78824;SDS011;68176;45.554;10.220;2023-04-07T12:00:09;7.90;;;4.82;;
78824;SDS011;68176;45.554;10.220;2023-04-07T12:02:36;5.78;;;3.58;;
78824;SDS011;68176;45.554;10.220;2023-04-07T12:05:02;3.70;;;2.10;;
78824;SDS011;68176;45.554;10.220;2023-04-07T12:07:30;6.75;;;3.55;;
78824;SDS011;68176;45.554;10.220;2023-04-07T12:10:16;5.30;;;3.80;;
78824;SDS011;68176;45.554;10.220;2023-04-07T12:12:46;4.50;;;3.38;;
78824;SDS011;68176;45.554;10.220;2023-04-07T12:15:12;2.50;;;1.60;;
78824;SDS011;68176;45.554;10.220;2023-04-07T12:17:44;4.57;;;2.85;;
78824;SDS011;68176;45.554;10.220;2023-04-07T12:20:13;4.25;;;2.55;;
78824;SDS011;68176;45.554;10.220;2023-04-07T12:22:40;5.60;;;3.70;;
78824;SDS011;68176;45.554;10.220;2023-04-07T12:25:10;5.03;;;3.67;;
78824;SDS011;68176;45.554;10.220;2023-04-07T12:27:39;5.10;;;3.47;;
78824;SDS011;68176;45.554;10.220;2023-04-07T12:30:10;5.72;;;3.95;;
78824;SDS011;68176;45.554;10.220;2023-04-07T12:32:40;33.97;;;18.60;;
78824;SDS011;68176;45.554;10.220;2023-04-07T12:35:10;24.88;;;16.70;;
78824;SDS011;68176;45.554;10.220;2023-04-07T12:37:40;24.05;;;18.55;;
78824;SDS011;68176;45.554;10.220;2023-04-07T12:40:10;34.83;;;20.75;;
78824;SDS011;68176;45.554;10.220;2023-04-07T12:42:40;27.40;;;17.77;;
78824;SDS011;68176;45.554;10.220;2023-04-07T12:45:10;30.30;;;18.05;;
78824;SDS011;68176;45.554;10.220;2023-04-07T12:47:40;35.33;;;20.05;;
78824;SDS011;68176;45.554;10.220;2023-04-07T12:50:10;27.90;;;18.48;;
78824;SDS011;68176;45.554;10.220;2023-04-07T12:52:40;34.35;;;20.42;;
78824;SDS011;68176;45.554;10.220;2023-04-07T12:55:10;30.05;;;17.77;;
78824;SDS011;68176;45.554;10.220;2023-04-07T12:57:40;27.40;;;18.75;;
78824;SDS011;68176;45.554;10.220;2023-04-07T13:00:10;30.05;;;17.35;;
78824;SDS011;68176;45.554;10.220;2023-04-07T13:02:40;28.23;;;19.05;;
78824;SDS011;68176;45.554;10.220;2023-04-07T13:05:10;29.50;;;16.23;;
78824;SDS011;68176;45.554;10.220;2023-04-07T13:07:40;24.95;;;16.45;;
78824;SDS011;68176;45.554;10.220;2023-04-07T13:10:10;24.95;;;14.52;;
78824;SDS011;68176;45.554;10.220;2023-04-07T13:12:40;25.95;;;14.82;;
78824;SDS011;68176;45.554;10.220;2023-04-07T13:15:10;22.88;;;16.02;;
78824;SDS011;68176;45.554;10.220;2023-04-07T13:20:10;23.80;;;15.70;;
78824;SDS011;68176;45.554;10.220;2023-04-07T13:22:40;25.27;;;16.02;;
78824;SDS011;68176;45.554;10.220;2023-04-07T13:25:10;25.55;;;15.38;;
78824;SDS011;68176;45.554;10.220;2023-04-07T13:27:40;19.10;;;12.27;;
78824;SDS011;68176;45.554;10.220;2023-04-07T13:30:10;24.77;;;13.50;;
78824;SDS011;68176;45.554;10.220;2023-04-07T13:32:40;13.07;;;10.37;;
78824;SDS011;68176;45.554;10.220;2023-04-07T13:35:10;28.58;;;15.45;;
78824;SDS011;68176;45.554;10.220;2023-04-07T13:37:40;28.65;;;16.23;;
78824;SDS011;68176;45.554;10.220;2023-04-07T13:40:10;28.50;;;15.90;;
78824;SDS011;68176;45.554;10.220;2023-04-07T13:42:44;30.00;;;13.57;;
78824;SDS011;68176;45.554;10.220;2023-04-07T13:45:10;27.75;;;14.35;;
78824;SDS011;68176;45.554;10.220;2023-04-07T13:47:40;22.42;;;14.95;;
78824;SDS011;68176;45.554;10.220;2023-04-07T13:50:10;27.33;;;16.35;;
78824;SDS011;68176;45.554;10.220;2023-04-07T13:52:40;26.00;;;14.93;;
78824;SDS011;68176;45.554;10.220;2023-04-07T13:55:11;21.30;;;14.15;;
78824;SDS011;68176;45.554;10.220;2023-04-07T13:57:40;27.70;;;14.75;;
78824;SDS011;68176;45.554;10.220;2023-04-07T14:00:10;22.63;;;15.05;;
78824;SDS011;68176;45.554;10.220;2023-04-07T14:02:40;20.70;;;14.90;;
78824;SDS011;68176;45.554;10.220;2023-04-07T14:05:10;23.25;;;14.98;;
78824;SDS011;68176;45.554;10.220;2023-04-07T14:07:40;27.50;;;16.05;;
78824;SDS011;68176;45.554;10.220;2023-04-07T14:10:10;33.63;;;20.63;;
78824;SDS011;68176;45.554;10.220;2023-04-07T14:12:40;28.40;;;18.17;;
78824;SDS011;68176;45.554;10.220;2023-04-07T14:15:10;29.23;;;17.80;;
78824;SDS011;68176;45.554;10.220;2023-04-07T14:17:40;28.38;;;18.02;;
78824;SDS011;68176;45.554;10.220;2023-04-07T14:22:40;27.15;;;16.52;;
78824;SDS011;68176;45.554;10.220;2023-04-07T14:25:10;28.98;;;15.93;;
78824;SDS011;68176;45.554;10.220;2023-04-07T14:27:40;20.33;;;13.82;;
78824;SDS011;68176;45.554;10.220;2023-04-07T14:30:10;18.00;;;12.13;;
78824;SDS011;68176;45.554;10.220;2023-04-07T14:32:40;17.23;;;12.25;;
78824;SDS011;68176;45.554;10.220;2023-04-07T14:35:10;21.10;;;12.43;;
78824;SDS011;68176;45.554;10.220;2023-04-07T14:37:40;20.83;;;12.07;;
78824;SDS011;68176;45.554;10.220;2023-04-07T14:40:11;19.23;;;13.88;;
78824;SDS011;68176;45.554;10.220;2023-04-07T14:42:40;17.60;;;11.27;;
78824;SDS011;68176;45.554;10.220;2023-04-07T14:45:10;17.77;;;13.07;;
78824;SDS011;68176;45.554;10.220;2023-04-07T14:47:40;18.25;;;12.85;;
78824;SDS011;68176;45.554;10.220;2023-04-07T14:50:10;21.42;;;13.82;;
78824;SDS011;68176;45.554;10.220;2023-04-07T14:52:40;16.90;;;12.98;;
78824;SDS011;68176;45.554;10.220;2023-04-07T14:55:10;19.25;;;14.88;;
78824;SDS011;68176;45.554;10.220;2023-04-07T14:57:40;19.23;;;11.80;;
78824;SDS011;68176;45.554;10.220;2023-04-07T15:00:10;15.70;;;10.38;;
78824;SDS011;68176;45.554;10.220;2023-04-07T15:02:40;18.75;;;10.80;;
78824;SDS011;68176;45.554;10.220;2023-04-07T15:05:10;20.67;;;10.02;;
78824;SDS011;68176;45.554;10.220;2023-04-07T15:07:40;14.25;;;9.80;;
78824;SDS011;68176;45.554;10.220;2023-04-07T15:10:10;15.80;;;6.20;;
78824;SDS011;68176;45.554;10.220;2023-04-07T15:12:41;11.95;;;7.00;;
78824;SDS011;68176;45.554;10.220;2023-04-07T15:15:14;11.45;;;7.63;;
78824;SDS011;68176;45.554;10.220;2023-04-07T15:17:41;15.47;;;5.47;;
78824;SDS011;68176;45.554;10.220;2023-04-07T15:20:11;13.48;;;8.00;;
78824;SDS011;68176;45.554;10.220;2023-04-07T15:22:40;19.38;;;10.35;;
78824;SDS011;68176;45.554;10.220;2023-04-07T15:25:10;13.70;;;8.75;;
78824;SDS011;68176;45.554;10.220;2023-04-07T15:27:40;14.90;;;10.15;;
78824;SDS011;68176;45.554;10.220;2023-04-07T15:30:20;19.88;;;10.75;;
78824;SDS011;68176;45.554;10.220;2023-04-07T15:32:58;15.07;;;7.90;;
78824;SDS011;68176;45.554;10.220;2023-04-07T15:35:24;13.67;;;7.50;;
78824;SDS011;68176;45.554;10.220;2023-04-07T15:37:51;12.90;;;6.25;;
78824;SDS011;68176;45.554;10.220;2023-04-07T15:40:18;14.40;;;8.43;;
78824;SDS011;68176;45.554;10.220;2023-04-07T15:42:48;14.73;;;8.98;;
78824;SDS011;68176;45.554;10.220;2023-04-07T15:45:18;17.33;;;8.73;;
78824;SDS011;68176;45.554;10.220;2023-04-07T15:47:48;19.48;;;8.15;;
78824;SDS011;68176;45.554;10.220;2023-04-07T15:50:18;12.95;;;7.85;;
78824;SDS011;68176;45.554;10.220;2023-04-07T15:52:48;12.80;;;7.57;;
78824;SDS011;68176;45.554;10.220;2023-04-07T15:55:18;12.38;;;7.60;;
78824;SDS011;68176;45.554;10.220;2023-04-07T16:00:18;9.77;;;6.15;;
78824;SDS011;68176;45.554;10.220;2023-04-07T16:05:18;10.00;;;6.28;;
78824;SDS011;68176;45.554;10.220;2023-04-07T16:07:48;11.90;;;6.18;;
78824;SDS011;68176;45.554;10.220;2023-04-07T16:10:18;13.73;;;5.35;;
78824;SDS011;68176;45.554;10.220;2023-04-07T16:12:48;9.55;;;5.70;;
78824;SDS011;68176;45.554;10.220;2023-04-07T16:15:18;14.70;;;6.13;;
78824;SDS011;68176;45.554;10.220;2023-04-07T16:17:48;12.95;;;6.38;;
78824;SDS011;68176;45.554;10.220;2023-04-07T16:20:18;21.33;;;7.28;;
78824;SDS011;68176;45.554;10.220;2023-04-07T16:22:48;9.45;;;5.68;;
78824;SDS011;68176;45.554;10.220;2023-04-07T16:25:18;11.52;;;6.43;;
78824;SDS011;68176;45.554;10.220;2023-04-07T16:27:56;13.55;;;6.75;;
78824;SDS011;68176;45.554;10.220;2023-04-07T16:30:21;9.75;;;2.95;;
78824;SDS011;68176;45.554;10.220;2023-04-07T16:32:49;8.25;;;4.55;;
78824;SDS011;68176;45.554;10.220;2023-04-07T16:35:18;9.65;;;4.78;;
78824;SDS011;68176;45.554;10.220;2023-04-07T16:40:18;10.60;;;4.88;;
78824;SDS011;68176;45.554;10.220;2023-04-07T16:42:48;7.75;;;5.45;;
78824;SDS011;68176;45.554;10.220;2023-04-07T16:45:18;8.80;;;5.35;;
78824;SDS011;68176;45.554;10.220;2023-04-07T16:47:51;27.05;;;16.25;;
78824;SDS011;68176;45.554;10.220;2023-04-07T16:50:21;24.25;;;14.82;;
78824;SDS011;68176;45.554;10.220;2023-04-07T16:52:48;27.35;;;16.88;;
78824;SDS011;68176;45.554;10.220;2023-04-07T16:55:18;29.25;;;16.42;;
78824;SDS011;68176;45.554;10.220;2023-04-07T16:57:48;26.77;;;16.38;;
78824;SDS011;68176;45.554;10.220;2023-04-07T17:00:18;26.45;;;15.15;;
78824;SDS011;68176;45.554;10.220;2023-04-07T17:02:48;27.77;;;16.83;;
78824;SDS011;68176;45.554;10.220;2023-04-07T17:05:18;24.85;;;16.13;;
78824;SDS011;68176;45.554;10.220;2023-04-07T17:10:18;29.15;;;17.70;;
78824;SDS011;68176;45.554;10.220;2023-04-07T17:12:48;29.73;;;18.42;;
78824;SDS011;68176;45.554;10.220;2023-04-07T17:15:18;24.13;;;13.85;;
78824;SDS011;68176;45.554;10.220;2023-04-07T17:17:48;22.60;;;16.35;;
78824;SDS011;68176;45.554;10.220;2023-04-07T17:20:18;24.70;;;17.02;;
78824;SDS011;68176;45.554;10.220;2023-04-07T17:22:48;36.13;;;18.98;;
78824;SDS011;68176;45.554;10.220;2023-04-07T17:25:18;30.60;;;17.40;;
78824;SDS011;68176;45.554;10.220;2023-04-07T17:27:48;27.45;;;16.90;;
78824;SDS011;68176;45.554;10.220;2023-04-07T17:30:18;28.55;;;16.30;;
78824;SDS011;68176;45.554;10.220;2023-04-07T17:32:49;29.63;;;17.42;;
78824;SDS011;68176;45.554;10.220;2023-04-07T17:35:19;28.95;;;18.40;;
78824;SDS011;68176;45.554;10.220;2023-04-07T17:37:49;28.13;;;17.52;;
78824;SDS011;68176;45.554;10.220;2023-04-07T17:40:19;26.90;;;17.00;;
78824;SDS011;68176;45.554;10.220;2023-04-07T17:45:19;32.17;;;17.33;;
78824;SDS011;68176;45.554;10.220;2023-04-07T17:47:48;32.45;;;16.85;;
78824;SDS011;68176;45.554;10.220;2023-04-07T17:50:18;29.25;;;17.63;;
78824;SDS011;68176;45.554;10.220;2023-04-07T17:52:48;33.97;;;18.02;;
78824;SDS011;68176;45.554;10.220;2023-04-07T17:55:18;30.70;;;20.27;;
78824;SDS011;68176;45.554;10.220;2023-04-07T17:57:49;28.63;;;17.30;;
78824;SDS011;68176;45.554;10.220;2023-04-07T18:00:19;31.98;;;16.85;;
78824;SDS011;68176;45.554;10.220;2023-04-07T18:02:48;29.08;;;16.88;;
78824;SDS011;68176;45.554;10.220;2023-04-07T18:05:19;26.92;;;15.88;;
78824;SDS011;68176;45.554;10.220;2023-04-07T18:07:48;23.52;;;12.48;;
78824;SDS011;68176;45.554;10.220;2023-04-07T18:10:19;19.27;;;11.70;;
78824;SDS011;68176;45.554;10.220;2023-04-07T18:12:49;18.63;;;12.48;;
78824;SDS011;68176;45.554;10.220;2023-04-07T18:15:19;15.30;;;11.80;;
78824;SDS011;68176;45.554;10.220;2023-04-07T18:17:49;21.83;;;12.80;;
78824;SDS011;68176;45.554;10.220;2023-04-07T18:20:19;17.15;;;10.82;;
78824;SDS011;68176;45.554;10.220;2023-04-07T18:22:49;14.05;;;11.30;;
78824;SDS011;68176;45.554;10.220;2023-04-07T18:25:19;17.85;;;10.77;;
78824;SDS011;68176;45.554;10.220;2023-04-07T18:27:49;17.23;;;11.50;;
78824;SDS011;68176;45.554;10.220;2023-04-07T18:30:22;21.42;;;11.25;;
78824;SDS011;68176;45.554;10.220;2023-04-07T18:32:49;22.50;;;12.85;;
78824;SDS011;68176;45.554;10.220;2023-04-07T18:35:19;17.70;;;10.43;;
78824;SDS011;68176;45.554;10.220;2023-04-07T18:40:19;12.23;;;9.02;;
78824;SDS011;68176;45.554;10.220;2023-04-07T18:42:52;15.85;;;9.82;;
78824;SDS011;68176;45.554;10.220;2023-04-07T18:45:19;11.33;;;9.23;;
78824;SDS011;68176;45.554;10.220;2023-04-07T18:47:49;20.75;;;10.32;;
78824;SDS011;68176;45.554;10.220;2023-04-07T18:50:19;15.02;;;9.57;;
78824;SDS011;68176;45.554;10.220;2023-04-07T18:52:49;15.20;;;9.70;;
78824;SDS011;68176;45.554;10.220;2023-04-07T18:55:19;13.30;;;9.35;;
78824;SDS011;68176;45.554;10.220;2023-04-07T18:57:49;17.83;;;10.35;;
78824;SDS011;68176;45.554;10.220;2023-04-07T19:00:19;21.63;;;8.68;;
78824;SDS011;68176;45.554;10.220;2023-04-07T19:02:49;14.25;;;8.07;;